sensor_id;sensor_type;location;lat;lon;timestamp;pressure;altitude;pressure_sealevel;temperature;humidity
31062;BME280;17724;53.546;9.974;2023-06-04T00:02:22;102223.81;;;15.98;46.90
31062;BME280;17724;53.546;9.974;2023-06-04T00:06:23;102222.72;;;15.99;47.22
31062;BME280;17724;53.546;9.974;2023-06-04T00:10:23;102223.88;;;16.04;47.30
31062;BME280;17724;53.546;9.974;2023-06-04T00:14:24;102215.63;;;15.87;48.25
31062;BME280;17724;53.546;9.974;2023-06-04T00:18:24;102210.19;;;15.92;48.30
31062;BME280;17724;53.546;9.974;2023-06-04T00:22:25;102221.97;;;15.82;48.58
31062;BME280;17724;53.546;9.974;2023-06-04T00:26:26;102217.31;;;15.88;48.46
31062;BME280;17724;53.546;9.974;2023-06-04T00:30:27;102223.97;;;15.87;48.54
31062;BME280;17724;53.546;9.974;2023-06-04T00:34:28;102226.41;;;15.83;48.62
31062;BME280;17724;53.546;9.974;2023-06-04T00:38:28;102219.19;;;15.82;48.82
31062;BME280;17724;53.546;9.974;2023-06-04T00:42:29;102208.81;;;15.72;49.25
31062;BME280;17724;53.546;9.974;2023-06-04T00:46:29;102217.56;;;15.64;49.31
31062;BME280;17724;53.546;9.974;2023-06-04T00:50:31;102212.47;;;15.56;49.00
31062;BME280;17724;53.546;9.974;2023-06-04T00:54:34;102218.09;;;15.61;48.61
31062;BME280;17724;53.546;9.974;2023-06-04T00:58:38;102209.72;;;15.39;49.34
31062;BME280;17724;53.546;9.974;2023-06-04T01:02:40;102213.75;;;15.48;49.02
31062;BME280;17724;53.546;9.974;2023-06-04T01:06:49;102212.38;;;15.51;48.70
31062;BME280;17724;53.546;9.974;2023-06-04T01:10:51;102207.94;;;15.50;48.97
31062;BME280;17724;53.546;9.974;2023-06-04T01:14:52;102210.88;;;15.60;48.94
31062;BME280;17724;53.546;9.974;2023-06-04T01:18:53;102204.34;;;15.49;48.86
31062;BME280;17724;53.546;9.974;2023-06-04T01:27:34;102198.19;;;15.47;48.98
31062;BME280;17724;53.546;9.974;2023-06-04T01:31:36;102204.00;;;15.46;48.85
31062;BME280;17724;53.546;9.974;2023-06-04T01:35:36;102194.47;;;15.37;48.81
31062;BME280;17724;53.546;9.974;2023-06-04T01:39:37;102200.06;;;15.42;48.63
31062;BME280;17724;53.546;9.974;2023-06-04T01:43:38;102208.78;;;15.50;48.28
31062;BME280;17724;53.546;9.974;2023-06-04T01:47:38;102203.56;;;15.54;47.58
31062;BME280;17724;53.546;9.974;2023-06-04T01:51:39;102198.78;;;15.49;47.50
31062;BME280;17724;53.546;9.974;2023-06-04T01:55:39;102193.09;;;15.39;48.02
31062;BME280;17724;53.546;9.974;2023-06-04T01:59:40;102189.16;;;15.35;48.36
31062;BME280;17724;53.546;9.974;2023-06-04T02:03:42;102198.03;;;15.32;48.82
31062;BME280;17724;53.546;9.974;2023-06-04T02:07:45;102207.34;;;15.26;48.95
31062;BME280;17724;53.546;9.974;2023-06-04T02:11:46;102193.22;;;15.27;48.97
31062;BME280;17724;53.546;9.974;2023-06-04T02:15:46;102198.56;;;15.12;49.34
31062;BME280;17724;53.546;9.974;2023-06-04T02:19:47;102199.06;;;15.09;49.51
31062;BME280;17724;53.546;9.974;2023-06-04T02:23:50;102214.84;;;14.92;50.06
31062;BME280;17724;53.546;9.974;2023-06-04T02:27:50;102208.88;;;15.00;49.94
31062;BME280;17724;53.546;9.974;2023-06-04T02:31:51;102200.69;;;14.71;50.21
31062;BME280;17724;53.546;9.974;2023-06-04T02:35:51;102201.22;;;14.68;51.08
31062;BME280;17724;53.546;9.974;2023-06-04T02:39:52;102190.28;;;14.62;51.70
31062;BME280;17724;53.546;9.974;2023-06-04T02:43:52;102193.19;;;14.38;52.01
31062;BME280;17724;53.546;9.974;2023-06-04T02:47:53;102200.44;;;14.56;51.85
31062;BME280;17724;53.546;9.974;2023-06-04T02:51:53;102196.00;;;14.55;52.03
31062;BME280;17724;53.546;9.974;2023-06-04T02:55:54;102197.28;;;14.36;53.04
31062;BME280;17724;53.546;9.974;2023-06-04T02:59:54;102196.22;;;14.37;53.05
31062;BME280;17724;53.546;9.974;2023-06-04T03:03:56;102198.94;;;14.20;53.77
31062;BME280;17724;53.546;9.974;2023-06-04T03:08:05;102198.03;;;14.31;53.72
31062;BME280;17724;53.546;9.974;2023-06-04T03:12:06;102195.88;;;14.33;53.65
31062;BME280;17724;53.546;9.974;2023-06-04T03:16:07;102203.06;;;14.34;53.59
31062;BME280;17724;53.546;9.974;2023-06-04T03:20:10;102201.47;;;14.21;54.18
31062;BME280;17724;53.546;9.974;2023-06-04T03:24:11;102198.44;;;14.23;54.15
31062;BME280;17724;53.546;9.974;2023-06-04T03:28:12;102187.44;;;14.28;54.21
31062;BME280;17724;53.546;9.974;2023-06-04T03:32:13;102191.81;;;14.24;54.21
31062;BME280;17724;53.546;9.974;2023-06-04T03:36:15;102194.50;;;14.36;54.53
31062;BME280;17724;53.546;9.974;2023-06-04T03:40:17;102198.97;;;14.37;54.42
31062;BME280;17724;53.546;9.974;2023-06-04T03:44:20;102194.28;;;14.37;53.57
31062;BME280;17724;53.546;9.974;2023-06-04T03:48:20;102201.13;;;14.35;53.92
31062;BME280;17724;53.546;9.974;2023-06-04T03:52:24;102202.66;;;14.42;53.36
31062;BME280;17724;53.546;9.974;2023-06-04T03:56:25;102207.72;;;14.45;53.47
31062;BME280;17724;53.546;9.974;2023-06-04T04:00:30;102199.63;;;14.44;53.85
31062;BME280;17724;53.546;9.974;2023-06-04T04:04:33;102203.41;;;14.38;54.03
31062;BME280;17724;53.546;9.974;2023-06-04T04:08:34;102209.63;;;14.45;54.10
31062;BME280;17724;53.546;9.974;2023-06-04T04:12:35;102187.22;;;14.29;54.51
31062;BME280;17724;53.546;9.974;2023-06-04T04:16:36;102211.28;;;14.29;54.71
31062;BME280;17724;53.546;9.974;2023-06-04T04:20:37;102209.72;;;14.04;55.92
31062;BME280;17724;53.546;9.974;2023-06-04T04:24:42;102213.03;;;13.90;56.53
31062;BME280;17724;53.546;9.974;2023-06-04T04:28:43;102213.22;;;14.00;56.44
31062;BME280;17724;53.546;9.974;2023-06-04T04:32:44;102212.13;;;13.72;57.70
31062;BME280;17724;53.546;9.974;2023-06-04T04:36:56;102205.75;;;13.72;57.64
31062;BME280;17724;53.546;9.974;2023-06-04T04:40:59;102213.94;;;13.67;58.46
31062;BME280;17724;53.546;9.974;2023-06-04T04:45:01;102218.84;;;13.76;58.39
31062;BME280;17724;53.546;9.974;2023-06-04T04:49:03;102214.97;;;13.89;58.10
31062;BME280;17724;53.546;9.974;2023-06-04T04:53:04;102217.06;;;13.70;59.41
31062;BME280;17724;53.546;9.974;2023-06-04T04:57:05;102216.34;;;13.63;60.26
31062;BME280;17724;53.546;9.974;2023-06-04T05:01:08;102211.75;;;13.80;59.75
31062;BME280;17724;53.546;9.974;2023-06-04T05:05:10;102213.97;;;13.95;59.84
31062;BME280;17724;53.546;9.974;2023-06-04T05:09:12;102223.34;;;13.94;60.87
31062;BME280;17724;53.546;9.974;2023-06-04T05:13:12;102215.16;;;13.99;61.21
31062;BME280;17724;53.546;9.974;2023-06-04T05:17:23;102218.53;;;14.01;62.14
31062;BME280;17724;53.546;9.974;2023-06-04T05:21:34;102220.56;;;14.23;61.26
31062;BME280;17724;53.546;9.974;2023-06-04T05:25:39;102230.38;;;14.14;62.40
31062;BME280;17724;53.546;9.974;2023-06-04T05:29:41;102223.09;;;14.24;62.24
31062;BME280;17724;53.546;9.974;2023-06-04T05:33:42;102237.31;;;14.45;61.92
31062;BME280;17724;53.546;9.974;2023-06-04T05:37:47;102243.66;;;14.28;62.90
31062;BME280;17724;53.546;9.974;2023-06-04T05:41:57;102234.06;;;14.19;63.47
31062;BME280;17724;53.546;9.974;2023-06-04T05:45:57;102242.13;;;14.21;64.22
31062;BME280;17724;53.546;9.974;2023-06-04T05:49:59;102221.84;;;14.32;64.03
31062;BME280;17724;53.546;9.974;2023-06-04T05:54:00;102242.56;;;14.58;63.58
31062;BME280;17724;53.546;9.974;2023-06-04T05:58:00;102234.59;;;14.78;62.97
31062;BME280;17724;53.546;9.974;2023-06-04T06:02:01;102251.28;;;14.84;62.94
31062;BME280;17724;53.546;9.974;2023-06-04T06:06:03;102248.72;;;14.77;64.08
31062;BME280;17724;53.546;9.974;2023-06-04T06:10:06;102245.44;;;14.97;63.32
31062;BME280;17724;53.546;9.974;2023-06-04T06:14:08;102246.81;;;15.55;62.04
31062;BME280;17724;53.546;9.974;2023-06-04T06:18:09;102231.91;;;15.78;60.54
31062;BME280;17724;53.546;9.974;2023-06-04T06:22:10;102236.78;;;16.42;58.43
31062;BME280;17724;53.546;9.974;2023-06-04T06:26:11;102261.81;;;16.47;57.53
31062;BME280;17724;53.546;9.974;2023-06-04T06:30:17;102242.28;;;16.37;57.50
31062;BME280;17724;53.546;9.974;2023-06-04T06:34:18;102254.47;;;16.63;56.83
31062;BME280;17724;53.546;9.974;2023-06-04T06:38:19;102256.31;;;16.52;57.22
31062;BME280;17724;53.546;9.974;2023-06-04T06:42:19;102255.88;;;16.65;55.39
31062;BME280;17724;53.546;9.974;2023-06-04T06:46:22;102246.88;;;16.53;56.19
31062;BME280;17724;53.546;9.974;2023-06-04T06:50:25;102257.50;;;16.88;55.53
31062;BME280;17724;53.546;9.974;2023-06-04T06:54:25;102257.91;;;17.07;54.59
31062;BME280;17724;53.546;9.974;2023-06-04T06:58:26;102265.59;;;16.95;54.75
31062;BME280;17724;53.546;9.974;2023-06-04T07:02:26;102258.63;;;17.24;54.24
31062;BME280;17724;53.546;9.974;2023-06-04T07:06:27;102271.75;;;17.34;53.55
31062;BME280;17724;53.546;9.974;2023-06-04T07:10:27;102274.13;;;17.63;52.95
31062;BME280;17724;53.546;9.974;2023-06-04T07:14:28;102270.19;;;17.54;53.33
31062;BME280;17724;53.546;9.974;2023-06-04T07:18:28;102268.31;;;17.69;52.69
31062;BME280;17724;53.546;9.974;2023-06-04T07:22:29;102264.00;;;17.89;52.16
31062;BME280;17724;53.546;9.974;2023-06-04T07:26:29;102270.47;;;18.15;51.41
31062;BME280;17724;53.546;9.974;2023-06-04T07:30:31;102266.56;;;18.06;51.57
31062;BME280;17724;53.546;9.974;2023-06-04T07:34:34;102268.53;;;18.10;51.22
31062;BME280;17724;53.546;9.974;2023-06-04T07:38:37;102263.56;;;18.33;50.70
31062;BME280;17724;53.546;9.974;2023-06-04T07:42:37;102260.78;;;18.28;50.07
31062;BME280;17724;53.546;9.974;2023-06-04T07:46:38;102255.53;;;18.57;49.51
31062;BME280;17724;53.546;9.974;2023-06-04T07:50:38;102251.66;;;18.78;49.11
31062;BME280;17724;53.546;9.974;2023-06-04T07:54:40;102237.41;;;18.49;48.73
31062;BME280;17724;53.546;9.974;2023-06-04T07:58:41;102257.53;;;19.02;48.52
31062;BME280;17724;53.546;9.974;2023-06-04T08:02:43;102256.97;;;19.05;46.96
31062;BME280;17724;53.546;9.974;2023-06-04T08:06:44;102265.59;;;19.14;46.58
31062;BME280;17724;53.546;9.974;2023-06-04T08:10:44;102260.56;;;19.31;46.45
31062;BME280;17724;53.546;9.974;2023-06-04T08:14:45;102254.13;;;19.31;46.47
31062;BME280;17724;53.546;9.974;2023-06-04T08:18:46;102261.91;;;19.64;45.79
31062;BME280;17724;53.546;9.974;2023-06-04T08:22:46;102253.22;;;19.66;45.87
31062;BME280;17724;53.546;9.974;2023-06-04T08:26:47;102259.38;;;19.53;45.25
31062;BME280;17724;53.546;9.974;2023-06-04T08:30:48;102261.03;;;19.79;45.23
31062;BME280;17724;53.546;9.974;2023-06-04T08:34:49;102270.75;;;19.82;43.19
31062;BME280;17724;53.546;9.974;2023-06-04T08:38:50;102268.59;;;19.63;41.73
31062;BME280;17724;53.546;9.974;2023-06-04T08:42:57;102253.41;;;19.95;40.91
31062;BME280;17724;53.546;9.974;2023-06-04T08:47:03;102263.59;;;20.20;40.39
31062;BME280;17724;53.546;9.974;2023-06-04T08:51:06;102256.94;;;20.16;40.52
31062;BME280;17724;53.546;9.974;2023-06-04T08:55:11;102257.94;;;20.35;40.45
31062;BME280;17724;53.546;9.974;2023-06-04T08:59:12;102265.19;;;20.36;39.90
31062;BME280;17724;53.546;9.974;2023-06-04T09:03:15;102262.94;;;20.78;40.20
31062;BME280;17724;53.546;9.974;2023-06-04T09:07:16;102264.91;;;21.11;39.39
31062;BME280;17724;53.546;9.974;2023-06-04T09:11:18;102262.88;;;21.17;38.74
31062;BME280;17724;53.546;9.974;2023-06-04T09:15:20;102269.81;;;21.54;38.42
31062;BME280;17724;53.546;9.974;2023-06-04T09:19:20;102275.06;;;21.31;37.22
31062;BME280;17724;53.546;9.974;2023-06-04T09:23:21;102267.22;;;21.62;37.79
31062;BME280;17724;53.546;9.974;2023-06-04T09:27:24;102263.78;;;21.89;37.63
31062;BME280;17724;53.546;9.974;2023-06-04T09:31:26;102275.84;;;22.09;36.55
31062;BME280;17724;53.546;9.974;2023-06-04T09:35:29;102276.22;;;22.26;36.81
31062;BME280;17724;53.546;9.974;2023-06-04T09:39:29;102280.22;;;22.20;36.00
31062;BME280;17724;53.546;9.974;2023-06-04T09:43:30;102252.28;;;21.91;36.01
31062;BME280;17724;53.546;9.974;2023-06-04T09:47:44;102273.56;;;22.35;36.84
31062;BME280;17724;53.546;9.974;2023-06-04T09:51:47;102268.03;;;22.68;37.00
31062;BME280;17724;53.546;9.974;2023-06-04T09:55:59;102266.59;;;22.70;34.95
31062;BME280;17724;53.546;9.974;2023-06-04T10:00:01;102266.09;;;23.01;34.65
31062;BME280;17724;53.546;9.974;2023-06-04T10:04:13;102268.97;;;23.28;33.77
31062;BME280;17724;53.546;9.974;2023-06-04T10:08:15;102268.47;;;23.40;33.33
31062;BME280;17724;53.546;9.974;2023-06-04T10:12:22;102268.41;;;23.73;33.70
31062;BME280;17724;53.546;9.974;2023-06-04T10:16:25;102264.56;;;23.82;32.88
31062;BME280;17724;53.546;9.974;2023-06-04T10:20:26;102254.16;;;23.69;32.77
31062;BME280;17724;53.546;9.974;2023-06-04T10:24:27;102267.66;;;24.08;32.82
31062;BME280;17724;53.546;9.974;2023-06-04T10:28:27;102267.22;;;24.15;31.93
31062;BME280;17724;53.546;9.974;2023-06-04T10:32:29;102252.69;;;23.99;31.06
31062;BME280;17724;53.546;9.974;2023-06-04T10:36:29;102256.91;;;23.42;31.29
31062;BME280;17724;53.546;9.974;2023-06-04T10:40:32;102261.44;;;23.84;32.72
31062;BME280;17724;53.546;9.974;2023-06-04T10:44:47;102256.91;;;24.38;31.83
31062;BME280;17724;53.546;9.974;2023-06-04T10:48:53;102252.97;;;24.12;31.71
31062;BME280;17724;53.546;9.974;2023-06-04T10:52:54;102251.03;;;24.48;31.04
31062;BME280;17724;53.546;9.974;2023-06-04T10:56:55;102263.13;;;25.47;30.87
31062;BME280;17724;53.546;9.974;2023-06-04T11:00:56;102254.88;;;26.08;30.47
31062;BME280;17724;53.546;9.974;2023-06-04T11:05:03;102258.59;;;26.61;30.24
31062;BME280;17724;53.546;9.974;2023-06-04T11:09:13;102257.13;;;28.34;27.58
31062;BME280;17724;53.546;9.974;2023-06-04T11:13:23;102262.38;;;28.86;26.26
31062;BME280;17724;53.546;9.974;2023-06-04T11:17:23;102250.91;;;27.22;27.43
31062;BME280;17724;53.546;9.974;2023-06-04T11:21:24;102247.56;;;25.98;29.40
31062;BME280;17724;53.546;9.974;2023-06-04T11:25:25;102248.19;;;25.38;30.13
31062;BME280;17724;53.546;9.974;2023-06-04T11:29:27;102236.97;;;24.48;31.49
31062;BME280;17724;53.546;9.974;2023-06-04T11:33:28;102248.53;;;23.83;31.96
31062;BME280;17724;53.546;9.974;2023-06-04T11:37:30;102238.31;;;24.01;32.10
31062;BME280;17724;53.546;9.974;2023-06-04T11:41:34;102213.34;;;23.85;32.21
31062;BME280;17724;53.546;9.974;2023-06-04T11:45:36;102231.69;;;23.69;32.86
31062;BME280;17724;53.546;9.974;2023-06-04T11:49:36;102241.63;;;23.61;33.47
31062;BME280;17724;53.546;9.974;2023-06-04T11:53:37;102233.75;;;23.64;33.46
31062;BME280;17724;53.546;9.974;2023-06-04T11:57:39;102232.91;;;23.63;33.54
31062;BME280;17724;53.546;9.974;2023-06-04T12:01:42;102230.56;;;23.70;33.54
31062;BME280;17724;53.546;9.974;2023-06-04T12:05:43;102239.91;;;23.66;33.71
31062;BME280;17724;53.546;9.974;2023-06-04T12:09:43;102242.78;;;23.60;33.72
31062;BME280;17724;53.546;9.974;2023-06-04T12:13:44;102224.47;;;23.49;33.81
31062;BME280;17724;53.546;9.974;2023-06-04T12:17:51;102223.66;;;23.35;34.23
31062;BME280;17724;53.546;9.974;2023-06-04T12:22:06;102221.88;;;23.39;34.11
31062;BME280;17724;53.546;9.974;2023-06-04T12:26:07;102236.53;;;23.36;34.40
31062;BME280;17724;53.546;9.974;2023-06-04T12:30:07;102221.13;;;23.33;35.50
31062;BME280;17724;53.546;9.974;2023-06-04T12:34:09;102217.41;;;23.52;34.66
31062;BME280;17724;53.546;9.974;2023-06-04T12:38:10;102221.88;;;23.39;34.65
31062;BME280;17724;53.546;9.974;2023-06-04T12:42:10;102211.66;;;23.29;35.02
31062;BME280;17724;53.546;9.974;2023-06-04T12:46:11;102216.56;;;23.38;35.27
31062;BME280;17724;53.546;9.974;2023-06-04T12:50:11;102219.38;;;23.38;34.96
31062;BME280;17724;53.546;9.974;2023-06-04T12:54:12;102210.75;;;23.34;34.56
31062;BME280;17724;53.546;9.974;2023-06-04T12:58:13;102209.06;;;23.19;35.23
31062;BME280;17724;53.546;9.974;2023-06-04T13:02:13;102218.75;;;23.27;35.36
31062;BME280;17724;53.546;9.974;2023-06-04T13:06:16;102206.78;;;23.21;34.62
31062;BME280;17724;53.546;9.974;2023-06-04T13:10:16;102188.69;;;23.14;35.82
31062;BME280;17724;53.546;9.974;2023-06-04T13:14:17;102208.28;;;23.46;35.41
31062;BME280;17724;53.546;9.974;2023-06-04T13:18:17;102220.63;;;23.59;34.40
31062;BME280;17724;53.546;9.974;2023-06-04T13:22:18;102217.41;;;23.66;33.70
31062;BME280;17724;53.546;9.974;2023-06-04T13:26:19;102200.97;;;23.59;34.08
31062;BME280;17724;53.546;9.974;2023-06-04T13:30:21;102205.34;;;23.51;34.11
31062;BME280;17724;53.546;9.974;2023-06-04T13:34:21;102186.72;;;23.28;33.14
31062;BME280;17724;53.546;9.974;2023-06-04T13:38:22;102208.28;;;23.46;34.22
31062;BME280;17724;53.546;9.974;2023-06-04T13:42:22;102201.59;;;23.56;33.67
31062;BME280;17724;53.546;9.974;2023-06-04T13:46:23;102202.75;;;23.55;33.47
31062;BME280;17724;53.546;9.974;2023-06-04T13:50:23;102188.41;;;23.43;34.64
31062;BME280;17724;53.546;9.974;2023-06-04T13:54:23;102189.34;;;23.38;33.74
31062;BME280;17724;53.546;9.974;2023-06-04T13:58:25;102197.78;;;23.38;34.38
31062;BME280;17724;53.546;9.974;2023-06-04T14:02:26;102198.06;;;23.36;34.70
31062;BME280;17724;53.546;9.974;2023-06-04T14:06:26;102190.38;;;23.56;34.39
31062;BME280;17724;53.546;9.974;2023-06-04T14:10:27;102173.53;;;23.42;33.90
31062;BME280;17724;53.546;9.974;2023-06-04T14:14:27;102190.28;;;23.47;33.21
31062;BME280;17724;53.546;9.974;2023-06-04T14:18:29;102179.34;;;23.46;34.17
31062;BME280;17724;53.546;9.974;2023-06-04T14:22:30;102175.09;;;23.62;34.29
31062;BME280;17724;53.546;9.974;2023-06-04T14:26:30;102179.47;;;23.68;33.43
31062;BME280;17724;53.546;9.974;2023-06-04T14:30:31;102160.84;;;23.58;34.92
31062;BME280;17724;53.546;9.974;2023-06-04T14:34:31;102170.72;;;23.42;34.79
31062;BME280;17724;53.546;9.974;2023-06-04T14:38:32;102179.22;;;23.37;34.11
31062;BME280;17724;53.546;9.974;2023-06-04T14:42:32;102167.19;;;23.36;34.10
31062;BME280;17724;53.546;9.974;2023-06-04T14:46:33;102164.59;;;23.26;34.03
31062;BME280;17724;53.546;9.974;2023-06-04T14:50:34;102172.88;;;23.18;35.03
31062;BME280;17724;53.546;9.974;2023-06-04T14:54:34;102170.06;;;23.18;34.24
31062;BME280;17724;53.546;9.974;2023-06-04T14:58:35;102167.59;;;23.02;33.60
31062;BME280;17724;53.546;9.974;2023-06-04T15:02:35;102162.63;;;23.27;34.13
31062;BME280;17724;53.546;9.974;2023-06-04T15:06:36;102165.09;;;23.15;34.38
31062;BME280;17724;53.546;9.974;2023-06-04T15:10:36;102169.47;;;23.21;34.90
31062;BME280;17724;53.546;9.974;2023-06-04T15:14:37;102162.19;;;23.20;35.15
31062;BME280;17724;53.546;9.974;2023-06-04T15:18:37;102165.09;;;23.28;34.24
31062;BME280;17724;53.546;9.974;2023-06-04T15:22:38;102163.44;;;23.41;35.27
31062;BME280;17724;53.546;9.974;2023-06-04T15:26:39;102152.84;;;23.38;34.80
31062;BME280;17724;53.546;9.974;2023-06-04T15:30:39;102167.28;;;23.31;34.80
31062;BME280;17724;53.546;9.974;2023-06-04T15:34:40;102159.88;;;23.22;34.64
31062;BME280;17724;53.546;9.974;2023-06-04T15:38:41;102160.31;;;23.15;34.07
31062;BME280;17724;53.546;9.974;2023-06-04T15:42:43;102159.25;;;22.97;34.38
31062;BME280;17724;53.546;9.974;2023-06-04T15:46:44;102168.97;;;22.86;35.18
31062;BME280;17724;53.546;9.974;2023-06-04T15:50:45;102158.44;;;22.78;35.67
31062;BME280;17724;53.546;9.974;2023-06-04T15:54:45;102163.31;;;22.91;35.87
31062;BME280;17724;53.546;9.974;2023-06-04T15:58:46;102150.69;;;22.75;36.62
31062;BME280;17724;53.546;9.974;2023-06-04T16:02:46;102157.97;;;22.90;36.70
31062;BME280;17724;53.546;9.974;2023-06-04T16:06:47;102171.25;;;22.84;36.56
31062;BME280;17724;53.546;9.974;2023-06-04T16:10:48;102116.13;;;22.47;37.17
31062;BME280;17724;53.546;9.974;2023-06-04T16:14:49;102163.22;;;22.77;37.71
31062;BME280;17724;53.546;9.974;2023-06-04T16:18:50;102159.59;;;22.77;37.23
31062;BME280;17724;53.546;9.974;2023-06-04T16:22:51;102160.03;;;22.70;37.24
31062;BME280;17724;53.546;9.974;2023-06-04T16:26:51;102149.31;;;22.40;36.80
31062;BME280;17724;53.546;9.974;2023-06-04T16:30:52;102148.19;;;22.41;36.93
31062;BME280;17724;53.546;9.974;2023-06-04T16:34:52;102143.00;;;22.48;37.24
31062;BME280;17724;53.546;9.974;2023-06-04T16:38:53;102141.97;;;22.44;37.00
31062;BME280;17724;53.546;9.974;2023-06-04T16:42:53;102145.97;;;22.37;37.02
31062;BME280;17724;53.546;9.974;2023-06-04T16:46:54;102148.56;;;22.34;36.99
31062;BME280;17724;53.546;9.974;2023-06-04T16:50:54;102145.69;;;22.01;37.73
31062;BME280;17724;53.546;9.974;2023-06-04T16:54:56;102147.66;;;22.01;37.64
31062;BME280;17724;53.546;9.974;2023-06-04T16:58:59;102132.75;;;21.86;37.92
31062;BME280;17724;53.546;9.974;2023-06-04T17:02:59;102142.97;;;21.96;37.97
31062;BME280;17724;53.546;9.974;2023-06-04T17:07:00;102127.59;;;21.56;38.13
31062;BME280;17724;53.546;9.974;2023-06-04T17:11:00;102147.38;;;21.83;37.71
31062;BME280;17724;53.546;9.974;2023-06-04T17:15:01;102148.50;;;21.82;37.81
31062;BME280;17724;53.546;9.974;2023-06-04T17:19:05;102148.56;;;21.77;38.36
31062;BME280;17724;53.546;9.974;2023-06-04T17:23:19;102143.50;;;21.79;38.52
31062;BME280;17724;53.546;9.974;2023-06-04T17:27:20;102150.69;;;21.85;39.05
31062;BME280;17724;53.546;9.974;2023-06-04T17:31:20;102151.78;;;21.65;37.31
31062;BME280;17724;53.546;9.974;2023-06-04T17:35:22;102157.34;;;21.71;37.93
31062;BME280;17724;53.546;9.974;2023-06-04T17:39:23;102148.78;;;21.81;37.22
31062;BME280;17724;53.546;9.974;2023-06-04T17:43:24;102149.66;;;21.57;37.42
31062;BME280;17724;53.546;9.974;2023-06-04T17:47:24;102145.47;;;21.36;37.95
31062;BME280;17724;53.546;9.974;2023-06-04T17:51:25;102154.59;;;21.47;37.83
31062;BME280;17724;53.546;9.974;2023-06-04T17:55:25;102158.91;;;21.34;38.26
31062;BME280;17724;53.546;9.974;2023-06-04T17:59:28;102149.25;;;21.21;38.37
31062;BME280;17724;53.546;9.974;2023-06-04T18:03:31;102157.38;;;21.23;38.52
31062;BME280;17724;53.546;9.974;2023-06-04T18:07:35;102139.34;;;20.81;38.39
31062;BME280;17724;53.546;9.974;2023-06-04T18:11:36;102153.94;;;21.02;38.93
31062;BME280;17724;53.546;9.974;2023-06-04T18:15:36;102155.38;;;20.99;39.11
31062;BME280;17724;53.546;9.974;2023-06-04T18:19:37;102167.56;;;20.84;38.36
31062;BME280;17724;53.546;9.974;2023-06-04T18:23:38;102158.66;;;20.77;38.68
31062;BME280;17724;53.546;9.974;2023-06-04T18:27:39;102159.38;;;20.64;39.69
31062;BME280;17724;53.546;9.974;2023-06-04T18:31:40;102159.38;;;20.64;39.09
31062;BME280;17724;53.546;9.974;2023-06-04T18:35:40;102162.44;;;20.62;39.09
31062;BME280;17724;53.546;9.974;2023-06-04T18:39:41;102164.19;;;20.53;39.26
31062;BME280;17724;53.546;9.974;2023-06-04T18:43:42;102181.25;;;20.47;40.17
31062;BME280;17724;53.546;9.974;2023-06-04T18:47:42;102181.88;;;20.43;40.74
31062;BME280;17724;53.546;9.974;2023-06-04T18:51:43;102167.13;;;20.33;41.27
31062;BME280;17724;53.546;9.974;2023-06-04T18:55:44;102173.63;;;20.23;41.92
31062;BME280;17724;53.546;9.974;2023-06-04T18:59:44;102174.13;;;20.30;42.15
31062;BME280;17724;53.546;9.974;2023-06-04T19:03:45;102179.75;;;20.25;41.58
31062;BME280;17724;53.546;9.974;2023-06-04T19:07:46;102176.31;;;19.99;41.77
31062;BME280;17724;53.546;9.974;2023-06-04T19:11:47;102169.50;;;19.71;41.99
31062;BME280;17724;53.546;9.974;2023-06-04T19:15:48;102185.84;;;19.93;42.67
31062;BME280;17724;53.546;9.974;2023-06-04T19:19:52;102183.66;;;19.85;42.38
31062;BME280;17724;53.546;9.974;2023-06-04T19:23:53;102197.41;;;19.61;42.42
31062;BME280;17724;53.546;9.974;2023-06-04T19:27:54;102195.16;;;19.73;43.02
31062;BME280;17724;53.546;9.974;2023-06-04T19:31:54;102204.09;;;19.70;42.78
31062;BME280;17724;53.546;9.974;2023-06-04T19:35:55;102198.00;;;19.63;43.01
31062;BME280;17724;53.546;9.974;2023-06-04T19:39:56;102208.56;;;19.61;43.31
31062;BME280;17724;53.546;9.974;2023-06-04T19:43:56;102215.56;;;19.53;45.00
31062;BME280;17724;53.546;9.974;2023-06-04T19:48:00;102205.28;;;19.49;44.50
31062;BME280;17724;53.546;9.974;2023-06-04T19:52:00;102215.88;;;19.41;44.95
31062;BME280;17724;53.546;9.974;2023-06-04T19:56:01;102217.59;;;19.32;45.63
31062;BME280;17724;53.546;9.974;2023-06-04T20:00:02;102223.19;;;19.32;45.56
31062;BME280;17724;53.546;9.974;2023-06-04T20:04:12;102222.34;;;19.22;45.76
31062;BME280;17724;53.546;9.974;2023-06-04T20:08:13;102235.75;;;19.19;45.65
31062;BME280;17724;53.546;9.974;2023-06-04T20:12:13;102231.00;;;19.15;45.86
31062;BME280;17724;53.546;9.974;2023-06-04T20:16:16;102210.69;;;18.94;46.28
31062;BME280;17724;53.546;9.974;2023-06-04T20:20:17;102233.28;;;19.08;46.47
31062;BME280;17724;53.546;9.974;2023-06-04T20:24:17;102239.13;;;18.96;46.96
31062;BME280;17724;53.546;9.974;2023-06-04T20:28:18;102230.22;;;18.89;47.63
31062;BME280;17724;53.546;9.974;2023-06-04T20:32:18;102240.81;;;18.72;48.41
31062;BME280;17724;53.546;9.974;2023-06-04T20:36:20;102245.78;;;18.64;48.93
31062;BME280;17724;53.546;9.974;2023-06-04T20:40:22;102243.56;;;18.66;49.67
31062;BME280;17724;53.546;9.974;2023-06-04T20:44:22;102244.44;;;18.72;49.80
31062;BME280;17724;53.546;9.974;2023-06-04T20:48:23;102254.41;;;18.63;50.60
31062;BME280;17724;53.546;9.974;2023-06-04T20:52:24;102243.50;;;18.31;51.24
31062;BME280;17724;53.546;9.974;2023-06-04T20:56:24;102260.25;;;18.41;52.57
31062;BME280;17724;53.546;9.974;2023-06-04T21:00:27;102250.19;;;18.19;53.56
31062;BME280;17724;53.546;9.974;2023-06-04T21:04:29;102255.47;;;18.21;53.37
31062;BME280;17724;53.546;9.974;2023-06-04T21:08:33;102261.56;;;18.13;54.41